Time;durP1;ratioP1;P1;durP2;ratioP2;P2;SDS_P1;SDS_P2;PMS_P1;PMS_P2;Temp;Humidity;BMP_temperature;BMP_pressure;BME280_temperature;BME280_humidity;BME280_pressure;Samples;Min_cycle;Max_cycle;Signal;HPM_P1;HPM_P2
2023/05/11 00:00:36;;;;;;;0.10;0.10;;;;;;;21.84;56.07;101498.47;5071582;28;20051;-67
2023/05/11 00:03:02;;;;;;;0.10;0.10;;;;;;;21.72;56.30;101496.06;5071875;28;20036;-67
2023/05/11 00:05:27;;;;;;;0.10;0.10;;;;;;;21.79;56.14;101498.47;5071283;28;20357;-66
2023/05/11 00:07:53;;;;;;;0.10;0.10;;;;;;;21.84;55.20;101498.47;5071287;28;20029;-66
2023/05/11 00:10:18;;;;;;;0.10;0.10;;;;;;;21.78;56.31;101500.41;5071112;28;20037;-67
2023/05/11 00:12:44;;;;;;;0.00;0.00;;;;;;;21.70;56.91;101494.69;5071324;28;20044;-67
2023/05/11 00:15:09;;;;;;;0.10;0.10;;;;;;;21.69;56.70;101496.63;5071135;28;20043;-67
2023/05/11 00:17:35;;;;;;;0.00;0.00;;;;;;;21.40;56.99;101487.50;5071897;28;20024;-67
2023/05/11 00:20:00;;;;;;;0.10;0.10;;;;;;;21.45;56.70;101494.84;5074967;28;20381;-67
2023/05/11 00:22:26;;;;;;;0.10;0.10;;;;;;;21.65;56.48;101492.81;5071228;28;20036;-67
2023/05/11 00:24:51;;;;;;;0.10;0.10;;;;;;;21.81;55.81;101488.09;5071166;28;20041;-67
2023/05/11 00:27:16;;;;;;;0.10;0.10;;;;;;;21.48;56.61;101486.09;5071170;28;20429;-69
2023/05/11 00:29:42;;;;;;;0.10;0.10;;;;;;;21.60;56.59;101492.84;5071787;28;20078;-67
2023/05/11 00:32:07;;;;;;;0.10;0.10;;;;;;;21.66;56.40;101488.19;5071055;28;20388;-66
2023/05/11 00:34:33;;;;;;;0.10;0.10;;;;;;;21.74;56.24;101490.28;5070753;28;20032;-69
2023/05/11 00:36:58;;;;;;;0.00;0.00;;;;;;;21.60;56.91;101483.84;5071299;28;20032;-66
2023/05/11 00:39:24;;;;;;;0.10;0.10;;;;;;;21.73;56.30;101484.03;5071189;28;20045;-67
2023/05/11 00:41:49;;;;;;;0.10;0.10;;;;;;;21.75;56.18;101486.47;5073379;28;20040;-68
2023/05/11 00:44:16;;;;;;;0.10;0.10;;;;;;;21.41;57.27;101480.09;5074802;28;20072;-67
2023/05/11 00:46:41;;;;;;;0.10;0.10;;;;;;;21.61;57.27;101488.19;5074557;28;20055;-66
2023/05/11 00:49:08;;;;;;;0.10;0.10;;;;;;;21.45;56.80;101484.72;5074713;28;20479;-67
2023/05/11 00:51:35;;;;;;;0.10;0.10;;;;;;;21.41;57.73;101482.81;5074860;28;20535;-67
2023/05/11 00:54:01;;;;;;;0.10;0.10;;;;;;;21.34;57.63;101485.88;5075420;28;20044;-67
2023/05/11 00:56:26;;;;;;;0.08;0.08;;;;;;;21.39;56.86;101477.66;5074774;28;20032;-67
2023/05/11 00:58:52;;;;;;;0.10;0.10;;;;;;;21.33;57.74;101483.41;5056253;28;20458;-67
2023/05/11 01:01:17;;;;;;;0.20;0.20;;;;;;;21.37;57.66;101482.56;5074720;28;20044;-71
2023/05/11 01:03:44;;;;;;;0.10;0.10;;;;;;;21.53;57.05;101483.31;5071833;28;20045;-68
2023/05/11 01:06:35;;;;;;;0.10;0.10;;;;;;;21.61;56.70;101479.97;5074699;28;20060;-67
2023/05/11 01:09:08;;;;;;;0.10;0.10;;;;;;;21.69;56.58;101488.44;5074870;28;20021;-67
2023/05/11 01:11:39;;;;;;;0.10;0.10;;;;;;;21.41;57.06;101483.66;5074061;28;20075;-67
2023/05/11 01:14:22;;;;;;;0.10;0.10;;;;;;;21.46;57.72;101491.81;5074317;28;20122;-67
2023/05/11 01:16:53;;;;;;;0.15;0.15;;;;;;;21.27;58.40;101490.81;5072920;28;20061;-67
2023/05/11 01:19:39;;;;;;;0.10;0.10;;;;;;;21.42;57.57;101488.03;5074494;28;20576;-66
2023/05/11 01:22:19;;;;;;;0.17;0.17;;;;;;;21.17;58.12;101484.59;5074373;28;20114;-67
2023/05/11 01:25:03;;;;;;;0.10;0.10;;;;;;;21.52;57.61;101496.16;5073629;28;20448;-66
2023/05/11 01:27:55;;;;;;;0.10;0.10;;;;;;;21.72;56.80;101501.53;5074030;28;20392;-67
2023/05/11 01:30:24;;;;;;;0.10;0.10;;;;;;;21.36;57.30;101500.09;5074110;28;20480;-68
2023/05/11 01:32:51;;;;;;;0.10;0.10;;;;;;;21.43;57.40;101497.03;5074770;28;20525;-68
2023/05/11 01:35:19;;;;;;;0.10;0.10;;;;;;;21.58;56.80;101502.44;5073614;28;20035;-67
2023/05/11 01:37:50;;;;;;;0.10;0.10;;;;;;;21.52;57.28;101496.16;5073646;28;20064;-67
2023/05/11 01:40:17;;;;;;;0.10;0.10;;;;;;;21.49;57.54;101496.75;5073053;28;20052;-67
2023/05/11 01:43:06;;;;;;;0.13;0.13;;;;;;;21.49;57.49;101493.19;5073863;28;20718;-67
2023/05/11 01:45:36;;;;;;;0.10;0.10;;;;;;;21.46;57.63;101494.56;5073681;28;20028;-67
2023/05/11 01:48:05;;;;;;;0.10;0.10;;;;;;;21.66;56.51;101493.66;5074491;28;20611;-66
2023/05/11 01:50:31;;;;;;;0.10;0.10;;;;;;;21.40;57.38;101495.69;5074101;28;20150;-68
2023/05/11 01:52:57;;;;;;;0.10;0.10;;;;;;;21.47;56.81;101493.47;5073042;28;20485;-67
2023/05/11 01:55:23;;;;;;;0.20;0.20;;;;;;;21.46;57.21;101491.03;5073638;28;20048;-67
2023/05/11 01:57:51;;;;;;;0.10;0.10;;;;;;;21.52;56.68;101495.38;5073333;28;20063;-67
2023/05/11 02:00:17;;;;;;;0.10;0.10;;;;;;;21.48;57.43;101497.81;5073757;28;20043;-68
2023/05/11 02:02:46;;;;;;;0.20;0.20;;;;;;;21.20;58.00;101494.97;5073779;28;20032;-66
2023/05/11 02:05:19;;;;;;;0.20;0.20;;;;;;;21.44;57.08;101494.03;5073287;28;20040;-68
2023/05/11 02:07:45;;;;;;;0.20;0.20;;;;;;;21.13;57.50;101503.44;5073476;28;20028;-67
2023/05/11 02:10:12;;;;;;;0.10;0.10;;;;;;;21.21;57.46;101489.22;5073143;28;20412;-67
2023/05/11 02:12:39;;;;;;;0.10;0.10;;;;;;;21.35;57.42;101492.16;5073112;28;20030;-67
2023/05/11 02:15:07;;;;;;;0.10;0.10;;;;;;;21.01;58.01;101492.03;5073692;28;20104;-68
2023/05/11 02:17:33;;;;;;;0.10;0.10;;;;;;;21.23;57.20;101488.94;5073139;28;20101;-67
2023/05/11 02:20:01;;;;;;;0.17;0.13;;;;;;;21.36;56.95;101497.38;5073081;28;20480;-66
2023/05/11 02:22:28;;;;;;;0.17;0.17;;;;;;;21.09;57.47;101502.38;5073301;28;20059;-67
2023/05/11 02:24:53;;;;;;;0.10;0.10;;;;;;;21.12;58.21;101496.38;5072926;28;20454;-66
2023/05/11 02:27:19;;;;;;;0.10;0.10;;;;;;;21.44;56.76;101496.78;5073132;28;20029;-68
2023/05/11 02:29:45;;;;;;;0.10;0.10;;;;;;;20.87;58.33;101496.41;5072504;28;20044;-66
2023/05/11 02:32:14;;;;;;;0.40;0.20;;;;;;;20.81;59.21;101497.53;5086772;28;20389;-66
2023/05/11 02:34:42;;;;;;;0.20;0.20;;;;;;;21.05;58.22;101500.50;5085102;28;20029;-67
2023/05/11 02:37:14;;;;;;;0.10;0.10;;;;;;;21.34;57.53;101501.47;5072495;28;20678;-67
2023/05/11 02:39:43;;;;;;;0.20;0.20;;;;;;;21.23;57.66;101508.09;5072723;28;20024;-68
2023/05/11 02:42:19;;;;;;;0.15;0.15;;;;;;;21.29;57.59;101509.69;5072915;28;20536;-67
2023/05/11 02:44:57;;;;;;;0.10;0.10;;;;;;;21.13;58.22;101508.91;5072672;28;20037;-68
2023/05/11 02:47:27;;;;;;;0.10;0.10;;;;;;;21.35;57.15;101511.28;5072799;28;20680;-68
2023/05/11 02:49:56;;;;;;;0.20;0.20;;;;;;;21.05;57.66;101516.91;5072904;28;20063;-67
2023/05/11 02:52:24;;;;;;;0.10;0.10;;;;;;;20.93;57.98;101509.78;5072504;28;20024;-68
2023/05/11 02:54:51;;;;;;;0.20;0.20;;;;;;;21.19;57.56;101505.06;5072542;28;20033;-66
2023/05/11 02:57:17;;;;;;;0.20;0.20;;;;;;;21.25;57.40;101512.16;5072693;28;20067;-66
2023/05/11 02:59:44;;;;;;;0.10;0.10;;;;;;;21.00;58.05;101510.31;5072337;28;20049;-68
2023/05/11 03:02:09;;;;;;;0.10;0.10;;;;;;;20.94;58.21;101511.41;5072402;28;20044;-69
2023/05/11 03:04:35;;;;;;;0.10;0.10;;;;;;;20.68;58.92;101496.16;5071294;28;20086;-67
2023/05/11 03:07:00;;;;;;;0.20;0.20;;;;;;;20.64;59.36;101502.44;5072232;28;20051;-67
2023/05/11 03:09:26;;;;;;;0.10;0.10;;;;;;;20.90;58.33;101499.41;5072309;28;20150;-66
2023/05/11 03:11:51;;;;;;;0.10;0.10;;;;;;;20.71;58.95;101495.63;5072072;28;20041;-68
2023/05/11 03:14:16;;;;;;;0.10;0.10;;;;;;;21.04;58.29;101504.31;5072061;28;20024;-67
2023/05/11 03:16:42;;;;;;;0.10;0.10;;;;;;;20.87;58.93;101502.69;5071987;28;20039;-67
2023/05/11 03:19:09;;;;;;;0.20;0.20;;;;;;;20.73;58.94;101509.84;5071454;28;20055;-67
2023/05/11 03:21:37;;;;;;;0.10;0.10;;;;;;;20.97;58.43;101499.91;5071948;28;20027;-67
2023/05/11 03:24:05;;;;;;;0.17;0.17;;;;;;;20.88;58.24;101501.59;5054112;28;20028;-67
2023/05/11 03:26:32;;;;;;;0.20;0.20;;;;;;;20.91;58.54;101500.22;5071276;28;20043;-67
2023/05/11 03:28:59;;;;;;;0.17;0.17;;;;;;;20.64;59.02;101502.44;5071537;28;20037;-68
2023/05/11 03:31:24;;;;;;;0.10;0.10;;;;;;;20.74;59.24;101497.81;5071510;28;20037;-66
2023/05/11 03:33:50;;;;;;;0.10;0.10;;;;;;;20.24;60.45;101495.13;5071390;28;20087;-68
2023/05/11 03:36:16;;;;;;;0.20;0.20;;;;;;;20.96;58.25;101498.31;5071863;28;20020;-68
2023/05/11 03:38:45;;;;;;;0.10;0.10;;;;;;;20.39;60.31;101497.03;5071471;28;20071;-67
2023/05/11 03:41:15;;;;;;;0.20;0.20;;;;;;;20.59;60.27;101497.00;5070773;28;20148;-66
2023/05/11 03:43:43;;;;;;;;;;;;;;;20.99;58.66;101503.19;5071683;28;20043;-65
2023/05/11 03:46:11;;;;;;;0.20;0.20;;;;;;;20.75;59.60;101502.19;5055967;28;20410;-67
2023/05/11 03:48:39;;;;;;;0.20;0.20;;;;;;;20.11;61.45;101506.53;5051379;28;20025;-66
2023/05/11 03:51:05;;;;;;;0.20;0.20;;;;;;;20.43;60.50;101507.13;5051662;28;20420;-68
2023/05/11 03:53:31;;;;;;;0.10;0.10;;;;;;;20.63;60.12;101504.38;5050983;28;20029;-66
2023/05/11 03:55:57;;;;;;;0.10;0.10;;;;;;;20.13;61.38;101498.91;5051031;28;20068;-67
2023/05/11 03:58:22;;;;;;;0.10;0.10;;;;;;;20.37;60.55;101499.22;5051150;28;20045;-66
2023/05/11 04:00:48;;;;;;;0.20;0.20;;;;;;;20.26;61.10;101509.34;5051328;28;21410;-66
2023/05/11 04:03:13;;;;;;;0.20;0.20;;;;;;;20.76;59.56;101508.44;5067447;28;20021;-66
2023/05/11 04:05:40;;;;;;;0.10;0.10;;;;;;;20.00;62.09;101510.38;5059770;28;20028;-66
2023/05/11 04:08:05;;;;;;;0.13;0.13;;;;;;;20.47;60.44;101516.41;5070932;28;20051;-66
2023/05/11 04:10:31;;;;;;;0.20;0.20;;;;;;;20.26;61.22;101511.25;5065128;28;20029;-66
2023/05/11 04:12:56;;;;;;;0.10;0.10;;;;;;;20.71;59.46;101513.94;5070792;28;20040;-67
2023/05/11 04:15:22;;;;;;;0.00;0.00;;;;;;;20.76;59.26;101520.19;5071161;28;20028;-67
2023/05/11 04:17:47;;;;;;;0.10;0.10;;;;;;;20.79;59.87;101519.66;5074762;28;20037;-66
2023/05/11 04:20:13;;;;;;;0.20;0.20;;;;;;;20.55;60.79;101526.78;5075650;28;20075;-67
2023/05/11 04:22:38;;;;;;;0.20;0.20;;;;;;;21.12;58.28;101529.16;5075845;28;20033;-65
2023/05/11 04:25:04;;;;;;;0.10;0.10;;;;;;;20.87;59.18;101532.72;5075766;28;20039;-66
2023/05/11 04:27:33;;;;;;;0.10;0.10;;;;;;;20.75;60.09;101532.25;5075145;28;20047;-64
2023/05/11 04:29:59;;;;;;;0.20;0.20;;;;;;;20.82;59.83;101537.41;5075877;28;20025;-67
2023/05/11 04:32:24;;;;;;;0.10;0.10;;;;;;;20.81;60.51;101541.25;5075353;28;20123;-65
2023/05/11 04:34:50;;;;;;;0.10;0.10;;;;;;;20.89;59.81;101535.22;5075293;28;20393;-65
2023/05/11 04:37:15;;;;;;;0.20;0.20;;;;;;;20.96;60.33;101541.19;5075611;28;20036;-66
2023/05/11 04:39:40;;;;;;;0.10;0.10;;;;;;;20.90;60.58;101545.03;5056605;28;20044;-66
2023/05/11 04:42:06;;;;;;;0.10;0.10;;;;;;;20.88;59.96;101537.13;5056957;28;20436;-65
2023/05/11 04:44:31;;;;;;;0.20;0.20;;;;;;;20.97;60.74;101540.91;5053185;28;20041;-67
2023/05/11 04:46:56;;;;;;;0.10;0.10;;;;;;;20.90;60.82;101534.94;5035083;28;20029;-64
2023/05/11 04:49:22;;;;;;;0.20;0.20;;;;;;;20.96;59.74;101533.81;5016716;28;20033;-67
2023/05/11 04:51:50;;;;;;;0.17;0.17;;;;;;;20.80;60.25;101537.69;5035650;28;20056;-65
2023/05/11 04:54:16;;;;;;;0.10;0.10;;;;;;;20.97;59.50;101540.13;5035054;28;20030;-66
2023/05/11 04:56:41;;;;;;;0.20;0.20;;;;;;;20.76;60.49;101541.22;5034666;28;20519;-65
2023/05/11 04:59:07;;;;;;;0.10;0.10;;;;;;;20.59;61.05;101549.72;5034844;28;20041;-65
2023/05/11 05:01:32;;;;;;;0.10;0.10;;;;;;;20.64;60.86;101552.44;5037316;28;20041;-65
2023/05/11 05:03:58;;;;;;;0.10;0.10;;;;;;;19.96;63.09;101548.28;5055123;28;20473;-67
2023/05/11 05:06:23;;;;;;;0.20;0.20;;;;;;;20.63;60.97;101552.72;5053514;28;20025;-66
2023/05/11 05:08:48;;;;;;;0.20;0.20;;;;;;;19.55;64.72;101551.16;5054315;28;20043;-65
2023/05/11 05:11:14;;;;;;;0.10;0.10;;;;;;;20.41;62.10;101552.19;5054244;28;20033;-65
2023/05/11 05:13:40;;;;;;;0.10;0.10;;;;;;;20.34;61.97;101552.47;5054156;28;20469;-65
2023/05/11 05:16:05;;;;;;;0.22;0.22;;;;;;;20.20;62.98;101550.53;5055055;28;20509;-65
2023/05/11 05:18:30;;;;;;;0.10;0.10;;;;;;;20.60;61.64;101553.28;5052702;28;20042;-67
2023/05/11 05:20:56;;;;;;;0.20;0.20;;;;;;;20.64;61.04;101549.72;5053558;28;20040;-66
2023/05/11 05:23:21;;;;;;;0.20;0.20;;;;;;;20.02;63.31;101554.56;5053324;28;20033;-65
2023/05/11 05:25:46;;;;;;;0.20;0.20;;;;;;;19.63;64.78;101553.38;5052430;28;20044;-66
2023/05/11 05:28:12;;;;;;;0.10;0.10;;;;;;;19.99;63.50;101558.66;5051510;28;20040;-64
2023/05/11 05:30:37;;;;;;;0.10;0.10;;;;;;;20.24;62.63;101560.66;5051805;28;20124;-67
2023/05/11 05:33:03;;;;;;;0.10;0.10;;;;;;;20.29;62.01;101551.63;5034168;28;20065;-66
2023/05/11 05:35:28;;;;;;;0.10;0.10;;;;;;;19.82;63.79;101549.06;5051102;28;20045;-66
2023/05/11 05:37:53;;;;;;;0.20;0.20;;;;;;;19.46;65.23;101541.88;5049441;28;20037;-66
2023/05/11 05:40:19;;;;;;;0.10;0.10;;;;;;;19.00;66.49;101540.78;5054555;28;20044;-66
2023/05/11 05:42:44;;;;;;;0.20;0.20;;;;;;;18.99;67.38;101536.41;5056173;28;20020;-66
2023/05/11 05:45:11;;;;;;;0.13;0.13;;;;;;;19.79;64.21;101536.78;5053667;28;20037;-66
2023/05/11 05:47:36;;;;;;;0.20;0.20;;;;;;;19.88;64.08;101545.25;5053564;28;20072;-66
2023/05/11 05:50:02;;;;;;;0.20;0.20;;;;;;;20.40;61.69;101550.56;5053989;28;20064;-65
2023/05/11 05:52:27;;;;;;;0.20;0.20;;;;;;;20.39;62.10;101554.38;5053616;28;20021;-66
2023/05/11 05:54:53;;;;;;;0.20;0.20;;;;;;;19.86;63.40;101567.38;5054215;28;20024;-67
2023/05/11 05:57:18;;;;;;;0.20;0.20;;;;;;;20.27;61.51;101551.91;5053135;28;20033;-65
2023/05/11 05:59:44;;;;;;;0.20;0.20;;;;;;;20.51;61.31;101554.91;5054123;28;20546;-65
2023/05/11 06:02:11;;;;;;;0.20;0.20;;;;;;;19.34;63.92;101560.34;5035922;28;20101;-66
2023/05/11 06:04:37;;;;;;;0.10;0.10;;;;;;;19.64;64.62;101557.72;5036370;28;20120;-65
2023/05/11 06:07:02;;;;;;;0.10;0.10;;;;;;;19.87;63.69;101555.34;5072357;28;20070;-65
2023/05/11 06:09:28;;;;;;;0.20;0.20;;;;;;;20.17;62.86;101566.34;5053230;28;20025;-66
2023/05/11 06:11:53;;;;;;;0.20;0.20;;;;;;;19.75;63.46;101564.88;5053066;28;20397;-65
2023/05/11 06:14:21;;;;;;;0.10;0.10;;;;;;;20.23;61.75;101569.09;5052858;28;20029;-66
2023/05/11 06:16:46;;;;;;;0.20;0.20;;;;;;;19.86;63.53;101570.09;5037919;28;20044;-66
2023/05/11 06:19:12;;;;;;;0.20;0.20;;;;;;;20.67;61.76;101581.97;5055590;28;20032;-65
2023/05/11 06:21:40;;;;;;;0.10;0.10;;;;;;;20.67;60.11;101587.41;5053470;28;20025;-66
2023/05/11 06:24:06;;;;;;;0.20;0.20;;;;;;;20.14;63.37;101579.72;5052862;28;20029;-66
2023/05/11 06:26:31;;;;;;;0.10;0.10;;;;;;;20.00;63.79;101582.13;5034620;28;20094;-67
2023/05/11 06:28:56;;;;;;;0.20;0.20;;;;;;;20.43;62.40;101578.13;5034997;28;20397;-64
2023/05/11 06:31:23;;;;;;;0.20;0.20;;;;;;;20.58;61.63;101577.31;5052672;28;20029;-66
2023/05/11 06:33:48;;;;;;;0.10;0.10;;;;;;;20.94;61.06;101581.66;5053351;28;20052;-68
2023/05/11 06:36:14;;;;;;;0.13;0.13;;;;;;;21.07;61.03;101589.28;5052730;28;20037;-67
2023/05/11 06:38:39;;;;;;;0.10;0.10;;;;;;;20.46;62.37;101587.69;5052633;28;20029;-66
2023/05/11 06:41:05;;;;;;;0.10;0.10;;;;;;;20.67;61.52;101590.16;5052392;28;20044;-66
2023/05/11 06:43:30;;;;;;;0.20;0.20;;;;;;;20.33;61.59;101589.03;5052446;28;21806;-66
2023/05/11 06:45:56;;;;;;;0.20;0.20;;;;;;;20.89;60.92;101590.66;5039562;28;20033;-65
2023/05/11 06:48:22;;;;;;;0.10;0.10;;;;;;;21.55;59.28;101585.06;5032504;28;20091;-66
2023/05/11 06:50:48;;;;;;;0.10;0.10;;;;;;;21.74;59.15;101594.25;5032344;28;20029;-66
2023/05/11 06:53:15;;;;;;;0.10;0.10;;;;;;;22.04;58.06;101590.56;5032435;28;20507;-66
2023/05/11 06:55:41;;;;;;;0.20;0.20;;;;;;;21.91;58.67;101588.47;5048509;28;20032;-66
2023/05/11 06:58:06;;;;;;;0.10;0.10;;;;;;;22.12;58.20;101587.25;5052727;28;20060;-65
2023/05/11 07:00:32;;;;;;;0.10;0.10;;;;;;;22.03;57.77;101595.25;5052220;28;20098;-66
2023/05/11 07:02:57;;;;;;;0.10;0.10;;;;;;;22.12;57.71;101598.19;5052150;28;20029;-67
2023/05/11 07:05:22;;;;;;;0.10;0.10;;;;;;;22.27;56.87;101592.63;5052308;28;20590;-66
2023/05/11 07:07:48;;;;;;;0.10;0.10;;;;;;;22.21;57.56;101602.78;5052420;28;20036;-66
2023/05/11 07:10:13;;;;;;;0.10;0.10;;;;;;;21.88;58.44;101605.47;5052011;28;20021;-64
2023/05/11 07:12:38;;;;;;;0.10;0.10;;;;;;;22.17;58.08;101606.41;5052691;28;20045;-67
2023/05/11 07:15:04;;;;;;;0.20;0.20;;;;;;;22.57;57.16;101608.84;5052019;28;20037;-66
2023/05/11 07:17:30;;;;;;;0.10;0.10;;;;;;;22.49;56.22;101607.53;5051920;28;20516;-66
2023/05/11 07:19:55;;;;;;;0.10;0.10;;;;;;;22.62;57.31;101609.63;5052145;28;20471;-67
2023/05/11 07:22:21;;;;;;;0.10;0.10;;;;;;;22.73;56.45;101606.81;5052036;28;20086;-66
2023/05/11 07:24:46;;;;;;;0.10;0.10;;;;;;;22.69;55.25;101603.84;5052180;28;20033;-66
2023/05/11 07:27:11;;;;;;;0.10;0.10;;;;;;;22.91;55.32;101612.41;5051757;28;20087;-66
2023/05/11 07:29:37;;;;;;;0.13;0.13;;;;;;;22.80;55.88;101616.34;5033472;28;20052;-66
2023/05/11 07:32:02;;;;;;;0.10;0.10;;;;;;;22.44;56.13;101612.22;5051726;28;20047;-66
2023/05/11 07:34:28;;;;;;;0.10;0.10;;;;;;;23.06;54.34;101620.47;5051828;28;20542;-66
2023/05/11 07:36:53;;;;;;;0.10;0.10;;;;;;;22.89;55.14;101619.28;5052156;28;20469;-65
2023/05/11 07:39:18;;;;;;;0.10;0.10;;;;;;;22.54;55.73;101620.38;5051858;28;20029;-66
2023/05/11 07:41:44;;;;;;;0.10;0.10;;;;;;;22.48;55.73;101629.72;5064371;28;20094;-66
2023/05/11 07:44:10;;;;;;;0.10;0.10;;;;;;;22.86;54.03;101630.84;5071494;28;20656;-67
2023/05/11 07:46:35;;;;;;;0.10;0.10;;;;;;;23.06;52.99;101631.44;5052583;28;20523;-68
2023/05/11 07:49:00;;;;;;;0.10;0.10;;;;;;;23.00;52.64;101629.84;5052170;28;20021;-66
2023/05/11 07:51:26;;;;;;;0.10;0.10;;;;;;;22.71;53.15;101620.81;5050587;28;20033;-67
2023/05/11 07:53:51;;;;;;;0.10;0.10;;;;;;;23.01;51.61;101620.53;5051322;28;20094;-66
2023/05/11 07:56:17;;;;;;;0.10;0.10;;;;;;;23.10;53.04;101623.47;5051317;28;20029;-68
2023/05/11 07:58:42;;;;;;;0.10;0.10;;;;;;;23.25;53.48;101617.84;5051302;28;20044;-66
2023/05/11 08:01:08;;;;;;;0.10;0.10;;;;;;;23.66;52.61;101613.56;5051888;28;20025;-66
2023/05/11 08:03:33;;;;;;;0.00;0.00;;;;;;;23.08;52.89;101611.97;5051404;28;20037;-65
2023/05/11 08:05:58;;;;;;;0.10;0.10;;;;;;;22.62;54.78;101620.59;5051182;28;20041;-64
2023/05/11 08:08:24;;;;;;;0.10;0.10;;;;;;;22.94;53.68;101624.72;5051232;28;20040;-67
2023/05/11 08:10:50;;;;;;;0.10;0.10;;;;;;;23.32;53.90;101621.06;5051129;28;20043;-66
2023/05/11 08:13:17;;;;;;;0.03;0.03;;;;;;;23.63;52.46;101619.59;5051044;28;20013;-68
2023/05/11 08:15:42;;;;;;;0.10;0.10;;;;;;;23.82;53.91;101619.66;5033694;28;20029;-65
2023/05/11 08:18:08;;;;;;;0.10;0.10;;;;;;;22.39;55.20;101629.50;5051276;28;20398;-66
2023/05/11 08:20:33;;;;;;;0.08;0.08;;;;;;;23.21;52.29;101623.06;5051072;28;20041;-65
2023/05/11 08:22:58;;;;;;;0.10;0.10;;;;;;;23.55;50.57;101625.75;5051129;28;20048;-65
2023/05/11 08:25:24;;;;;;;0.10;0.10;;;;;;;23.56;51.21;101624.66;5051119;28;20063;-66
2023/05/11 08:27:49;;;;;;;0.08;0.08;;;;;;;23.96;50.52;101620.56;5051588;28;20021;-66
2023/05/11 08:30:15;;;;;;;0.10;0.10;;;;;;;23.30;52.96;101626.00;5051660;28;20037;-66
2023/05/11 08:32:40;;;;;;;0.10;0.10;;;;;;;22.58;55.32;101626.94;5071235;28;20040;-64
2023/05/11 08:35:06;;;;;;;0.10;0.10;;;;;;;22.34;55.33;101621.34;5070765;28;20397;-67
2023/05/11 08:37:31;;;;;;;0.00;0.00;;;;;;;22.30;53.95;101623.00;5053122;28;20488;-65
2023/05/11 08:39:57;;;;;;;0.10;0.10;;;;;;;22.55;53.42;101630.22;5057234;28;20025;-66
2023/05/11 08:42:28;;;;;;;0.00;0.00;;;;;;;23.16;51.77;101628.63;5050734;28;20049;-65
2023/05/11 08:44:55;;;;;;;0.10;0.10;;;;;;;23.05;53.19;101623.53;5050500;28;20041;-66
2023/05/11 08:47:22;;;;;;;0.10;0.10;;;;;;;23.50;52.54;101614.84;5059533;28;20037;-65
2023/05/11 08:49:47;;;;;;;0.10;0.10;;;;;;;23.88;50.54;101627.50;5071855;28;20031;-65
2023/05/11 08:52:14;;;;;;;0.00;0.00;;;;;;;22.79;54.17;101636.63;5070207;28;20032;-66
2023/05/11 08:54:40;;;;;;;0.10;0.10;;;;;;;23.10;54.41;101640.72;5070933;28;20480;-65
2023/05/11 08:57:06;;;;;;;0.10;0.10;;;;;;;23.97;52.41;101630.44;5070692;28;20083;-65
2023/05/11 08:59:33;;;;;;;0.00;0.00;;;;;;;24.36;49.67;101631.81;5070616;28;20033;-65
2023/05/11 09:01:59;;;;;;;0.10;0.10;;;;;;;23.28;51.92;101628.22;5071652;28;20379;-65
2023/05/11 09:04:26;;;;;;;0.10;0.10;;;;;;;24.04;50.64;101628.16;5061905;28;20032;-66
2023/05/11 09:06:52;;;;;;;0.00;0.00;;;;;;;24.28;49.55;101631.66;5037223;28;20108;-66
2023/05/11 09:09:17;;;;;;;0.05;0.05;;;;;;;24.09;50.02;101630.84;5034107;28;20125;-65
2023/05/11 09:11:44;;;;;;;0.03;0.03;;;;;;;24.45;50.27;101626.47;5050297;28;20059;-65
2023/05/11 09:14:11;;;;;;;0.08;0.08;;;;;;;24.51;49.83;101624.47;5054012;28;20033;-66
2023/05/11 09:16:36;;;;;;;0.00;0.00;;;;;;;25.25;48.28;101629.78;5054694;28;20013;-65
2023/05/11 09:19:02;;;;;;;0.00;0.00;;;;;;;24.83;49.22;101628.06;5046974;28;20044;-65
2023/05/11 09:21:29;;;;;;;0.00;0.00;;;;;;;24.93;49.59;101627.88;5054764;28;20370;-67
2023/05/11 09:23:57;;;;;;;0.00;0.00;;;;;;;24.76;49.93;101627.66;5053280;28;20048;-65
2023/05/11 09:26:24;;;;;;;0.00;0.00;;;;;;;25.10;50.78;101622.63;5024676;28;20037;-65
2023/05/11 09:28:56;;;;;;;0.00;0.00;;;;;;;25.53;50.19;101636.16;5014017;28;20113;-66
2023/05/11 09:31:44;;;;;;;0.00;0.00;;;;;;;25.24;49.76;101625.38;5030983;28;20091;-66
2023/05/11 09:34:18;;;;;;;0.00;0.00;;;;;;;24.69;49.43;101621.66;5052766;28;20040;-66
2023/05/11 09:36:50;;;;;;;0.00;0.00;;;;;;;25.46;47.68;101624.72;5051504;28;20028;-66
2023/05/11 09:39:18;;;;;;;0.03;0.03;;;;;;;24.04;51.32;101628.16;5034110;28;20063;-65
2023/05/11 09:41:44;;;;;;;0.00;0.00;;;;;;;24.23;50.05;101629.81;5044493;28;20056;-67
2023/05/11 09:44:12;;;;;;;0.00;0.00;;;;;;;25.24;51.04;101639.16;5058451;28;20072;-67
2023/05/11 09:46:39;;;;;;;0.00;0.00;;;;;;;24.63;49.84;101641.31;5037768;28;20501;-66
2023/05/11 09:49:05;;;;;;;0.00;0.00;;;;;;;25.21;49.17;101631.50;5033289;28;20106;-66
2023/05/11 09:51:32;;;;;;;0.00;0.00;;;;;;;23.34;51.32;101632.56;5033822;28;20033;-66
2023/05/11 09:53:59;;;;;;;0.00;0.00;;;;;;;24.60;49.69;101636.41;5053435;28;20398;-65
2023/05/11 09:56:46;;;;;;;0.05;0.05;;;;;;;25.37;48.19;101634.78;5052976;28;20501;-66
2023/05/11 09:59:14;;;;;;;0.00;0.00;;;;;;;25.39;47.00;101644.38;5064517;28;20090;-65
2023/05/11 10:01:40;;;;;;;0.00;0.00;;;;;;;25.88;47.12;101639.00;5074264;28;20047;-66
2023/05/11 10:04:07;;;;;;;0.03;0.03;;;;;;;25.16;48.19;101635.16;5072540;28;20067;-66
2023/05/11 10:07:05;;;;;;;0.00;0.00;;;;;;;24.45;49.67;101639.41;5073101;28;20032;-67
2023/05/11 10:09:31;;;;;;;0.00;0.00;;;;;;;24.19;50.03;101642.53;4991459;28;20046;-65
2023/05/11 10:11:57;;;;;;;0.05;0.05;;;;;;;24.21;50.48;101633.97;4971673;28;20058;-66
2023/05/11 10:14:25;;;;;;;0.00;0.00;;;;;;;25.52;48.47;101631.75;4985597;28;20129;-65
2023/05/11 10:16:52;;;;;;;0.00;0.00;;;;;;;25.24;47.18;101628.16;4991242;28;20045;-67
2023/05/11 10:19:18;;;;;;;0.00;0.00;;;;;;;25.79;46.23;101626.25;4991089;28;20091;-66
2023/05/11 10:21:45;;;;;;;0.00;0.00;;;;;;;26.21;45.59;101631.41;4991114;28;20034;-67
2023/05/11 10:24:12;;;;;;;0.00;0.00;;;;;;;26.64;44.25;101629.00;4974996;28;20053;-66
2023/05/11 10:26:38;;;;;;;0.00;0.00;;;;;;;26.27;43.77;101618.31;4990547;28;20041;-66
2023/05/11 10:29:04;;;;;;;0.00;0.00;;;;;;;25.47;44.81;101621.69;4990747;28;20438;-65
2023/05/11 10:31:31;;;;;;;0.00;0.00;;;;;;;24.64;47.09;101620.94;4990450;28;20386;-67
2023/05/11 10:33:57;;;;;;;0.00;0.00;;;;;;;23.62;48.72;101623.47;4990169;28;20081;-66
2023/05/11 10:36:24;;;;;;;0.00;0.00;;;;;;;25.22;46.56;101616.63;4991488;28;20094;-65
2023/05/11 10:38:49;;;;;;;0.00;0.00;;;;;;;24.61;46.40;101614.09;4990444;28;20132;-66
2023/05/11 10:41:28;;;;;;;0.00;0.00;;;;;;;25.46;45.78;101622.78;4983409;28;20439;-67
2023/05/11 10:44:23;;;;;;;0.03;0.03;;;;;;;24.99;46.58;101623.94;4970808;28;20059;-65
2023/05/11 10:47:20;;;;;;;0.00;0.00;;;;;;;25.11;45.58;101620.69;5003286;28;20421;-66
2023/05/11 10:50:07;;;;;;;0.00;0.00;;;;;;;24.97;46.19;101620.66;5032147;28;20172;-66
2023/05/11 10:53:03;;;;;;;0.00;0.00;;;;;;;25.27;46.84;101616.53;5032579;28;20040;-68
2023/05/11 10:55:44;;;;;;;0.00;0.00;;;;;;;25.87;44.85;101623.59;5032362;28;20128;-66
2023/05/11 10:58:20;;;;;;;0.00;0.00;;;;;;;26.26;44.44;101616.72;5026331;28;20128;-66
2023/05/11 11:01:22;;;;;;;0.00;0.00;;;;;;;26.55;43.61;101622.63;5033155;28;20496;-66
2023/05/11 11:04:04;;;;;;;0.00;0.00;;;;;;;26.97;43.41;101624.88;5060580;28;20400;-66
2023/05/11 11:06:30;;;;;;;0.00;0.00;;;;;;;24.26;49.68;101620.97;5068498;28;20073;-67
2023/05/11 11:09:12;;;;;;;0.00;0.00;;;;;;;24.55;48.72;101620.00;5053580;28;20508;-67
2023/05/11 11:11:46;;;;;;;0.00;0.00;;;;;;;23.73;50.38;101621.41;5071788;28;20155;-66
2023/05/11 11:14:15;;;;;;;0.00;0.00;;;;;;;24.05;49.42;101625.13;5053193;28;20029;-66
2023/05/11 11:17:15;;;;;;;0.00;0.00;;;;;;;24.38;47.84;101626.03;5060588;28;20048;-66
2023/05/11 11:19:41;;;;;;;0.00;0.00;;;;;;;24.01;48.53;101628.72;5051511;28;20025;-68
2023/05/11 11:22:37;;;;;;;0.00;0.00;;;;;;;24.97;47.88;101630.84;5051605;28;20116;-66
2023/05/11 11:25:07;;;;;;;0.00;0.00;;;;;;;25.49;46.68;101622.19;5050838;28;20037;-67
2023/05/11 11:27:38;;;;;;;;;;;;;;;25.55;45.09;101620.94;5051420;28;20033;-66
2023/05/11 11:30:25;;;;;;;0.00;0.00;;;;;;;26.25;44.50;101623.34;5051149;28;19912;-65